Windhoek, Namibia
Current Conditions -  °F | °C
As of 8:00 AM on Sunday 26 Oct 2014 (Local Time) from FYWH Reporting Station
Clear Clear  
Wind Chill: 24°   Ceiling: Unl
Heat Index: 24°   Visibility: 6mi
Dew Point: -2°   Wind: 8mph
Humidity: 18%   Direction: 70°ENE
Pressure: 30.21"   Gusts: NA
Location:  22.56°S, 17.09°E
Report Text: FYWH 260700Z 07007KT CAVOK 24/M02 Q1023 NOSIG
Loading
Personal Weather Stations






























Interactive Weather Map
Tropical Storm Tracking
New forecast layout! Learn more

10-Day Weather Forecast

Advertisements
Track Severe Weather on mobile